»·PEaware :: N122G KNYL-KOLS

N122G :: KNYL-KOLS

FLIGHT INFORMATION

Flight Status: Arrived
Operator: Privately registered:
United States
More flights under this callsign
Pilot: Ryan L. (28399)
Aircraft: CESSNA 510 CITATION MUSTANG
(C510)
More flights by this aircraft type
Origin: KNYL Yuma MCAS/Yuma Intl
United States
Destination: KOLS Nogales Intl
United States
More flights between these airports :: More routes between these airports
Route: MOHAK V66 TUS V395 OLS
File this flight plan on PilotEdge
Remarks:
Altitude:
(Current/Filed)
27,000ft
Speed:
(Current/Filed)
400kts
Departed: 02-Oct-20 09:51 AM
Arrived: 02-Oct-20 10:38 AM
Distance/Time
Traveled:
205nm/0:46
Distance/Time
To Go:
Arrived

Flight Plot

Page will automatically refresh every two minutes.

Flight plan parsing failed; only flown route is shown


Map Options




Map Legend


Flown Route
Filed Route
Departure Airport
Arrival Airport
Navaid (VOR, NDB)
Fix

Horizontal Profiles

Position Reports

Time Latitude Longitude Heading Altitude Ground
Speed
02-Oct-20 09:39 32.660821 -114.609706 87 216ft 0kts
02-Oct-20 09:40 32.660821 -114.609706 87 216ft 0kts
02-Oct-20 09:41 32.660821 -114.609706 87 216ft 0kts
02-Oct-20 09:42 32.660821 -114.609706 87 216ft 0kts
02-Oct-20 09:43 32.660821 -114.609706 87 216ft 0kts
02-Oct-20 09:44 32.660821 -114.609706 87 216ft 0kts
02-Oct-20 09:45 32.660821 -114.609706 87 216ft 0kts
02-Oct-20 09:46 32.660821 -114.609706 87 216ft 0kts
02-Oct-20 09:47 32.661773 -114.609165 67 216ft 13kts
02-Oct-20 09:48 32.662924 -114.605557 358 216ft 20kts
02-Oct-20 09:49 32.664924 -114.605578 359 217ft 12kts
02-Oct-20 09:50 32.667292 -114.598690 89 217ft 46kts
02-Oct-20 09:51 32.667349 -114.586149 148 217ft 10kts
02-Oct-20 09:52 32.666156 -114.586467 265 217ft 10kts
02-Oct-20 09:53 32.665785 -114.623698 270 979ft 181kts
02-Oct-20 09:54 32.703823 -114.637346 63 3609ft 234kts
02-Oct-20 09:55 32.715002 -114.554981 82 6344ft 264kts
02-Oct-20 09:56 32.726137 -114.468231 83 9337ft 269kts
02-Oct-20 09:57 32.737193 -114.378166 84 11847ft 288kts
02-Oct-20 09:58 32.749073 -114.280433 84 13891ft 306kts
02-Oct-20 09:59 32.761420 -114.179402 84 15908ft 312kts
02-Oct-20 10:00 32.773947 -114.076138 84 17484ft 326kts
02-Oct-20 10:01 32.777221 -113.962381 82 17464ft 362kts
02-Oct-20 10:02 32.794551 -113.842041 82 17474ft 373kts
02-Oct-20 10:03 32.811839 -113.721312 82 17478ft 370kts
02-Oct-20 10:04 32.828932 -113.600844 82 17490ft 364kts
02-Oct-20 10:05 32.845884 -113.480400 82 17511ft 371kts
02-Oct-20 10:06 32.862827 -113.359302 79 17502ft 359kts
02-Oct-20 10:07 32.879421 -113.236691 80 17502ft 378kts
02-Oct-20 10:08 32.897129 -113.110507 80 17500ft 386kts
02-Oct-20 10:09 32.916124 -112.972123 80 17504ft 389kts
02-Oct-20 10:10 32.934544 -112.836356 80 17496ft 373kts
02-Oct-20 10:11 32.951212 -112.712284 80 17498ft 362kts
02-Oct-20 10:12 32.918431 -112.594903 119 17502ft 378kts
02-Oct-20 10:13 32.865773 -112.485211 119 17501ft 384kts
02-Oct-20 10:14 32.813394 -112.376390 119 17496ft 370kts
02-Oct-20 10:15 32.762520 -112.270942 120 17508ft 360kts
02-Oct-20 10:16 32.711664 -112.165845 120 17545ft 376kts
02-Oct-20 10:17 32.658956 -112.057238 120 17573ft 383kts
02-Oct-20 10:18 32.605951 -111.948329 120 17569ft 370kts
02-Oct-20 10:19 32.555094 -111.844151 120 17577ft 370kts
02-Oct-20 10:20 32.502175 -111.736063 120 17574ft 382kts
02-Oct-20 10:21 32.449654 -111.629024 120 17570ft 367kts
02-Oct-20 10:22 32.397468 -111.522953 120 17575ft 379kts
02-Oct-20 10:23 32.341359 -111.416315 122 17574ft 384kts
02-Oct-20 10:24 32.287939 -111.306874 119 17581ft 382kts
02-Oct-20 10:25 32.237045 -111.199566 119 17198ft 373kts
02-Oct-20 10:26 32.184276 -111.092986 120 16204ft 376kts
02-Oct-20 10:27 32.129142 -110.982598 120 15496ft 359kts
02-Oct-20 10:28 32.052418 -110.922099 188 15513ft 362kts
02-Oct-20 10:29 31.952939 -110.938246 188 13881ft 355kts
02-Oct-20 10:30 31.850268 -110.955196 188 11211ft 346kts
02-Oct-20 10:31 31.748520 -110.971937 188 8315ft 287kts
02-Oct-20 10:32 31.660393 -110.964948 157 7595ft 288kts
02-Oct-20 10:33 31.589110 -110.926163 150 7544ft 278kts
02-Oct-20 10:34 31.522377 -110.881525 141 6493ft 262kts
02-Oct-20 10:35 31.474858 -110.838160 146 5823ft 155kts
02-Oct-20 10:36 31.441108 -110.826341 199 4784ft 128kts
02-Oct-20 10:37 31.416449 -110.849453 224 3960ft 16kts
02-Oct-20 10:38 31.416864 -110.850729 42 3959ft 3kts
02-Oct-20 10:39 31.418319 -110.849748 44 3960ft 0kts
02-Oct-20 10:40 31.418319 -110.849748 44 3960ft 0kts
02-Oct-20 10:41 31.418319 -110.849748 44 3960ft 0kts
02-Oct-20 10:42 31.418319 -110.849748 44 3960ft 0kts
02-Oct-20 10:43 31.418319 -110.849748 44 3960ft 0kts
02-Oct-20 10:44 31.418319 -110.849748 44 3960ft 0kts
02-Oct-20 10:45 31.418319 -110.849748 44 3960ft 0kts
02-Oct-20 10:46 31.418319 -110.849748 44 3960ft 0kts
02-Oct-20 10:47 31.418319 -110.849748 44 3960ft 0kts
02-Oct-20 10:48 31.418319 -110.849748 44 3960ft 0kts
02-Oct-20 10:49 31.418319 -110.849748 44 3960ft 0kts
02-Oct-20 10:50 31.418319 -110.849748 44 3960ft 0kts
02-Oct-20 10:51 31.418319 -110.849748 44 3960ft 0kts

Navigation Log

Ident Type
Flight plan parsing failed, navigation log unavailable